Time;durP1;ratioP1;P1;durP2;ratioP2;P2;SDS_P1;SDS_P2;PMS_P1;PMS_P2;Temp;Humidity;BMP_temperature;BMP_pressure;BME280_temperature;BME280_humidity;BME280_pressure;Samples;Min_cycle;Max_cycle;Signal;HPM_P1;HPM_P2
2022/05/27 00:00:17;;;;;;;3.40;1.40;;;16.60;99.90;;;;;;6307566;22;20168;-82
2022/05/27 00:02:44;;;;;;;3.67;1.33;;;16.60;99.90;;;;;;6280761;22;20173;-84
2022/05/27 00:05:09;;;;;;;3.27;1.40;;;16.60;99.90;;;;;;6280531;22;20255;-84
2022/05/27 00:07:35;;;;;;;3.53;1.40;;;16.60;99.90;;;;;;6307860;22;20270;-83
2022/05/27 00:10:01;;;;;;;4.10;1.30;;;16.50;99.90;;;;;;6279947;22;20262;-83
2022/05/27 00:12:26;;;;;;;5.97;1.47;;;16.40;99.90;;;;;;6306892;22;20608;-85
2022/05/27 00:14:52;;;;;;;4.67;1.60;;;16.30;99.90;;;;;;6280299;22;20243;-83
2022/05/27 00:17:18;;;;;;;4.83;1.67;;;16.30;99.90;;;;;;6280005;22;20184;-83
2022/05/27 00:19:43;;;;;;;3.70;1.50;;;16.30;99.90;;;;;;6280614;22;20200;-83
2022/05/27 00:22:09;;;;;;;6.23;1.87;;;16.30;99.90;;;;;;6280290;22;20167;-84
2022/05/27 00:24:36;;;;;;;6.23;1.97;;;16.40;99.90;;;;;;6280570;22;20180;-84
2022/05/27 00:27:02;;;;;;;3.23;1.53;;;16.50;99.90;;;;;;6279632;22;20158;-83
2022/05/27 00:29:27;;;;;;;4.07;1.60;;;16.70;99.90;;;;;;6307655;22;20162;-83
2022/05/27 00:31:53;;;;;;;3.50;1.43;;;16.70;99.90;;;;;;6307016;22;20225;-83
2022/05/27 00:34:19;;;;;;;6.40;1.80;;;16.70;99.90;;;;;;6307720;22;20156;-84
2022/05/27 00:36:44;;;;;;;4.97;1.60;;;16.60;99.90;;;;;;6280220;22;20197;-83
2022/05/27 00:39:10;;;;;;;8.33;1.90;;;16.60;99.90;;;;;;6280367;22;20604;-84
2022/05/27 00:41:35;;;;;;;5.03;1.60;;;16.60;99.90;;;;;;6279497;22;20211;-84
2022/05/27 00:44:01;;;;;;;5.43;1.37;;;16.70;99.90;;;;;;6307050;22;20169;-83
2022/05/27 00:46:32;;;;;;;4.77;1.60;;;16.70;99.90;;;;;;6279698;22;20415;-84
2022/05/27 00:49:22;;;;;;;6.00;1.63;;;16.70;99.90;;;;;;6307368;22;20161;-83
2022/05/27 00:51:52;;;;;;;7.00;1.43;;;16.50;99.90;;;;;;6284566;22;20197;-84
2022/05/27 00:54:22;;;;;;;5.90;1.43;;;16.40;99.90;;;;;;6306850;22;20161;-84
2022/05/27 00:56:53;;;;;;;6.23;1.30;;;16.40;99.90;;;;;;6306847;22;20527;-84
2022/05/27 00:59:23;;;;;;;6.80;1.93;;;16.30;99.90;;;;;;6279996;22;20490;-84
2022/05/27 01:01:49;;;;;;;7.33;1.93;;;16.20;99.90;;;;;;6279700;22;20172;-83
2022/05/27 01:04:15;;;;;;;10.13;2.17;;;16.20;99.90;;;;;;6279714;22;20621;-83
2022/05/27 01:06:41;;;;;;;8.53;2.30;;;16.30;99.90;;;;;;6279794;22;20196;-83
2022/05/27 01:09:07;;;;;;;9.07;1.80;;;16.20;99.90;;;;;;6279845;22;20171;-83
2022/05/27 01:12:12;;;;;;;8.27;2.10;;;16.50;99.90;;;;;;6306930;22;20259;-84
2022/05/27 01:14:49;;;;;;;6.30;1.63;;;16.60;99.90;;;;;;6233620;22;20176;-84
2022/05/27 01:17:36;;;;;;;9.30;1.90;;;16.50;99.90;;;;;;6306903;22;20192;-83
2022/05/27 01:20:20;;;;;;;6.53;1.60;;;16.50;99.90;;;;;;6307330;22;20131;-84
2022/05/27 01:23:21;;;;;;;9.47;2.10;;;16.60;99.90;;;;;;6306929;22;20144;-83
2022/05/27 01:26:24;;;;;;;6.63;1.50;;;16.50;99.90;;;;;;6279650;22;20155;-83
2022/05/27 01:29:20;;;;;;;8.10;2.33;;;16.50;99.90;;;;;;6307170;22;20137;-83
2022/05/27 01:31:59;;;;;;;11.77;2.00;;;16.60;99.90;;;;;;6279618;22;20188;-84
2022/05/27 01:34:57;;;;;;;7.17;2.13;;;16.60;99.90;;;;;;6279647;22;20152;-82
2022/05/27 01:37:42;;;;;;;10.67;2.17;;;16.40;99.90;;;;;;6295504;22;20185;-84
2022/05/27 01:40:20;;;;;;;10.03;2.20;;;16.60;99.90;;;;;;6279471;22;20174;-84
2022/05/27 01:42:51;;;;;;;9.53;1.87;;;16.70;99.90;;;;;;6279009;22;20153;-83
2022/05/27 01:45:30;;;;;;;8.97;1.90;;;16.60;99.90;;;;;;6279982;22;20541;-84
2022/05/27 01:48:02;;;;;;;10.67;2.87;;;16.60;99.90;;;;;;6306578;22;20136;-83
2022/05/27 01:50:46;;;;;;;9.93;2.73;;;16.40;99.90;;;;;;6279599;22;20156;-83
2022/05/27 01:53:24;;;;;;;16.80;2.43;;;16.30;99.90;;;;;;6306694;22;20224;-84
2022/05/27 01:56:00;;;;;;;12.13;2.60;;;16.30;99.90;;;;;;6279656;22;20161;-84
2022/05/27 01:58:35;;;;;;;6.70;2.13;;;16.40;99.90;;;;;;6280813;22;20596;-83
2022/05/27 02:01:03;;;;;;;12.63;3.27;;;16.30;99.90;;;;;;6281670;22;20162;-84
2022/05/27 02:03:51;;;;;;;9.93;2.57;;;16.30;99.90;;;;;;6281240;22;20498;-83
2022/05/27 02:06:35;;;;;;;11.23;2.60;;;16.30;99.90;;;;;;6281929;22;20236;-84
2022/05/27 02:09:11;;;;;;;12.90;2.93;;;16.30;99.90;;;;;;6274083;22;20228;-84
2022/05/27 02:11:38;;;;;;;9.60;2.90;;;16.30;99.90;;;;;;6308886;22;20151;-84
2022/05/27 02:14:16;;;;;;;11.43;2.90;;;16.20;99.90;;;;;;6281239;22;20159;-84
2022/05/27 02:16:51;;;;;;;9.17;2.57;;;16.20;99.90;;;;;;6281447;22;20191;-84
2022/05/27 02:19:28;;;;;;;10.20;3.07;;;16.30;99.90;;;;;;6308804;22;20137;-84
2022/05/27 02:21:58;;;;;;;10.10;2.67;;;16.40;99.90;;;;;;6281081;22;20149;-84
2022/05/27 02:24:56;;;;;;;9.10;2.90;;;16.40;99.90;;;;;;6308736;22;20175;-84
2022/05/27 02:27:36;;;;;;;12.83;3.67;;;16.30;99.90;;;;;;6301194;22;20175;-84
2022/05/27 02:30:08;;;;;;;8.57;2.57;;;16.20;99.90;;;;;;6281231;22;20156;-84
2022/05/27 02:32:43;;;;;;;9.20;2.87;;;16.30;99.90;;;;;;6280545;22;20168;-84
2022/05/27 02:35:13;;;;;;;9.17;3.07;;;16.30;99.90;;;;;;6281442;22;20161;-84
2022/05/27 02:37:43;;;;;;;11.17;3.43;;;16.30;99.90;;;;;;6308315;22;20241;-84
2022/05/27 02:40:30;;;;;;;12.37;3.30;;;16.30;99.90;;;;;;6281338;22;20157;-83
2022/05/27 02:43:01;;;;;;;5.93;2.70;;;16.40;99.90;;;;;;6308005;22;20634;-83
2022/05/27 02:45:56;;;;;;;11.63;2.67;;;16.20;99.90;;;;;;6308470;22;20203;-84
2022/05/27 02:48:40;;;;;;;6.33;2.60;;;16.00;99.90;;;;;;6276651;22;20163;-83
2022/05/27 02:51:24;;;;;;;9.13;2.70;;;16.00;99.90;;;;;;6280840;22;20232;-83
2022/05/27 02:54:01;;;;;;;7.67;2.60;;;15.90;99.90;;;;;;6308405;22;20141;-83
2022/05/27 02:56:40;;;;;;;14.33;3.37;;;15.90;99.90;;;;;;6280801;22;20187;-83
2022/05/27 02:59:10;;;;;;;9.93;2.93;;;16.00;99.90;;;;;;6280962;22;20158;-83
2022/05/27 03:01:35;;;;;;;13.30;3.53;;;16.10;99.90;;;;;;6281361;22;20450;-83
2022/05/27 03:04:04;;;;;;;12.87;3.00;;;16.10;99.90;;;;;;6281085;22;20162;-83
2022/05/27 03:06:57;;;;;;;11.03;3.03;;;16.10;99.90;;;;;;6280737;22;20511;-83
2022/05/27 03:09:27;;;;;;;9.97;2.90;;;16.10;99.90;;;;;;6280509;22;20580;-83
2022/05/27 03:12:09;;;;;;;9.33;2.70;;;16.10;99.90;;;;;;6281133;22;20151;-82
2022/05/27 03:15:22;;;;;;;10.77;2.90;;;16.20;99.90;;;;;;6307924;22;20157;-83
2022/05/27 03:18:05;;;;;;;10.53;2.80;;;16.30;99.90;;;;;;6191334;22;20197;-82
2022/05/27 03:21:20;;;;;;;11.73;3.30;;;16.20;99.90;;;;;;6307744;22;20172;-84
2022/05/27 03:24:12;;;;;;;10.07;2.63;;;16.20;99.90;;;;;;6242045;22;20154;-83
2022/05/27 03:26:46;;;;;;;8.40;2.83;;;16.40;99.90;;;;;;6236271;22;20196;-83
2022/05/27 03:29:39;;;;;;;8.70;3.00;;;16.50;99.90;;;;;;6308257;22;20225;-83
2022/05/27 03:32:24;;;;;;;11.10;3.43;;;16.30;99.90;;;;;;6280313;22;20161;-82
2022/05/27 03:35:13;;;;;;;11.40;2.73;;;16.30;99.90;;;;;;6280355;22;20188;-83
2022/05/27 03:37:55;;;;;;;15.33;3.13;;;16.20;99.90;;;;;;6256049;22;20209;-82
2022/05/27 03:40:28;;;;;;;7.73;3.40;;;16.20;99.90;;;;;;6308034;22;20572;-83
2022/05/27 03:42:55;;;;;;;8.83;2.83;;;16.10;99.90;;;;;;6307629;22;20211;-83
2022/05/27 03:45:23;;;;;;;11.23;3.10;;;15.90;99.90;;;;;;6307725;22;20563;-82
2022/05/27 03:47:50;;;;;;;11.23;3.80;;;15.90;99.90;;;;;;6307662;22;20659;-82
2022/05/27 03:50:24;;;;;;;13.37;2.90;;;15.90;99.90;;;;;;6307393;22;20211;-83
2022/05/27 03:52:53;;;;;;;10.23;3.00;;;15.90;99.90;;;;;;6280626;22;20603;-83
2022/05/27 03:55:23;;;;;;;12.90;4.17;;;15.90;99.90;;;;;;6307622;22;20145;-83
2022/05/27 03:57:48;;;;;;;9.67;3.40;;;15.90;99.90;;;;;;6308030;22;20181;-83
2022/05/27 04:00:16;;;;;;;10.23;2.87;;;15.90;99.90;;;;;;6280397;22;20154;-83
2022/05/27 04:02:42;;;;;;;17.00;4.07;;;15.90;99.90;;;;;;6307625;22;20149;-85
2022/05/27 04:05:10;;;;;;;11.07;3.53;;;16.10;99.90;;;;;;6280141;22;20186;-86
2022/05/27 04:07:37;;;;;;;14.47;4.23;;;16.20;99.90;;;;;;6280288;22;20172;-86
2022/05/27 04:10:04;;;;;;;12.33;4.23;;;16.20;99.90;;;;;;6307646;22;20554;-86
2022/05/27 04:12:29;;;;;;;8.83;3.70;;;16.30;99.90;;;;;;6280549;22;20152;-83
2022/05/27 04:14:55;;;;;;;13.40;3.80;;;16.20;99.90;;;;;;6280700;22;20648;-83
2022/05/27 04:17:32;;;;;;;11.77;4.33;;;16.10;99.90;;;;;;6280319;22;20188;-83
2022/05/27 04:20:10;;;;;;;10.70;4.53;;;16.20;99.90;;;;;;6280109;22;20152;-83
2022/05/27 04:22:37;;;;;;;15.03;4.90;;;16.10;99.90;;;;;;6306973;22;20146;-83
2022/05/27 04:25:04;;;;;;;10.10;3.87;;;16.00;99.90;;;;;;6280310;22;20621;-83
2022/05/27 04:27:30;;;;;;;16.23;4.83;;;16.00;99.90;;;;;;6307437;22;20509;-83
2022/05/27 04:29:56;;;;;;;12.83;4.93;;;16.00;99.90;;;;;;6280272;22;20179;-81
2022/05/27 04:32:23;;;;;;;17.40;6.40;;;16.10;99.90;;;;;;6280176;22;20148;-83
2022/05/27 04:34:53;;;;;;;14.27;4.90;;;16.10;99.90;;;;;;6307998;22;20231;-83
2022/05/27 04:37:19;;;;;;;16.83;5.90;;;16.10;99.90;;;;;;6280442;22;20191;-83
2022/05/27 04:39:45;;;;;;;18.23;5.63;;;16.10;99.90;;;;;;6280322;22;20153;-83
2022/05/27 04:42:11;;;;;;;12.40;5.50;;;16.10;99.90;;;;;;6307482;22;20147;-83
2022/05/27 04:44:37;;;;;;;20.20;5.93;;;16.10;99.90;;;;;;6307656;22;20161;-83
2022/05/27 04:47:03;;;;;;;13.03;5.60;;;16.00;99.90;;;;;;6307058;22;20562;-84
2022/05/27 04:52:13;;;;;;;12.87;6.03;;;15.90;99.90;;;;;;6307421;22;20149;-83
2022/05/27 04:54:39;;;;;;;19.07;6.57;;;15.90;99.90;;;;;;6280204;22;20537;-83
2022/05/27 04:57:05;;;;;;;17.30;6.63;;;15.90;99.90;;;;;;6279902;22;20520;-83
2022/05/27 04:59:35;;;;;;;17.50;6.93;;;15.90;99.90;;;;;;6279969;22;20562;-83
2022/05/27 05:02:04;;;;;;;17.33;7.00;;;15.80;99.90;;;;;;6306841;22;20160;-83
2022/05/27 05:04:29;;;;;;;15.43;6.43;;;15.80;99.90;;;;;;6280589;22;20574;-83
2022/05/27 05:07:01;;;;;;;16.40;7.40;;;15.80;99.90;;;;;;6307377;22;20259;-83
2022/05/27 05:09:27;;;;;;;14.40;7.10;;;15.90;99.90;;;;;;6279811;22;20586;-83
2022/05/27 05:11:52;;;;;;;14.77;7.13;;;16.00;99.90;;;;;;6280530;22;20150;-83
2022/05/27 05:14:18;;;;;;;15.37;6.90;;;16.00;99.90;;;;;;6280017;22;21078;-84
2022/05/27 05:16:43;;;;;;;19.53;7.63;;;15.90;99.90;;;;;;6306821;22;20214;-84
2022/05/27 05:19:09;;;;;;;21.23;8.73;;;15.80;99.90;;;;;;6279695;22;20180;-83
2022/05/27 05:21:36;;;;;;;19.63;8.60;;;15.80;99.90;;;;;;6279981;22;20178;-83
2022/05/27 11:36:54;;;;;;;5.77;1.77;;;25.10;88.00;;;;;;6322865;22;20649;-85
2022/05/27 11:39:47;;;;;;;6.90;1.80;;;26.20;82.90;;;;;;6338782;22;20137;-85
2022/05/27 11:42:57;;;;;;;6.73;1.70;;;26.70;80.50;;;;;;6311268;22;20236;-85
2022/05/27 11:45:26;;;;;;;5.93;1.80;;;27.60;78.70;;;;;;6182882;23;20156;-83
2022/05/27 11:48:06;;;;;;;4.07;1.40;;;27.90;77.00;;;;;;6291667;22;20185;-84
2022/05/27 11:51:05;;;;;;;3.63;1.43;;;27.00;75.90;;;;;;6310942;22;20153;-84
2022/05/27 11:53:51;;;;;;;4.57;1.50;;;26.10;75.80;;;;;;6311203;22;20153;-84
2022/05/27 11:56:24;;;;;;;6.73;1.73;;;26.60;76.00;;;;;;6310615;22;20163;-85
2022/05/27 11:58:58;;;;;;;5.83;1.93;;;26.70;77.10;;;;;;6310426;22;20172;-85
2022/05/27 12:02:13;;;;;;;7.43;2.50;;;26.90;78.90;;;;;;6311264;22;20191;-85
2022/05/27 12:04:54;;;;;;;6.93;2.53;;;27.40;77.60;;;;;;6311701;22;20150;-85
2022/05/27 12:07:19;;;;;;;6.17;2.13;;;28.10;76.50;;;;;;6288937;22;20501;-84
2022/05/27 12:09:55;;;;;;;10.87;2.37;;;28.90;75.80;;;;;;6279837;22;20146;-85
2022/05/27 12:12:31;;;;;;;7.38;2.47;;;29.80;75.00;;;;;;6280125;22;20141;-85
2022/05/27 12:15:04;;;;;;;9.20;2.80;;;30.70;74.00;;;;;;6280631;22;20601;-85
2022/05/27 12:17:43;;;;;;;6.03;2.57;;;30.50;71.30;;;;;;6280312;22;20271;-85
2022/05/27 12:20:12;;;;;;;6.10;2.33;;;30.40;72.20;;;;;;6279650;22;20532;-85
2022/05/27 12:22:40;;;;;;;5.93;2.25;;;30.70;70.60;;;;;;6280305;22;20162;-85
2022/05/27 12:25:12;;;;;;;7.50;2.88;;;31.30;69.00;;;;;;6280562;22;20232;-85
2022/05/27 12:27:38;;;;;;;8.83;3.20;;;30.80;68.80;;;;;;6280601;22;20149;-85
2022/05/27 12:30:14;;;;;;;4.77;2.73;;;29.40;69.20;;;;;;6279432;22;20586;-85
2022/05/27 12:32:43;;;;;;;8.07;2.97;;;29.00;70.50;;;;;;6280059;22;20181;-85
2022/05/27 12:35:33;;;;;;;8.00;2.67;;;29.50;70.00;;;;;;6279758;22;20142;-85
2022/05/27 12:38:12;;;;;;;8.93;2.33;;;29.40;68.50;;;;;;6279238;22;20514;-85
2022/05/27 12:41:02;;;;;;;7.63;2.30;;;28.60;69.30;;;;;;6279275;22;20145;-85
2022/05/27 12:43:38;;;;;;;5.73;2.07;;;28.80;69.80;;;;;;6280112;22;20145;-85
2022/05/27 12:46:04;;;;;;;6.50;2.03;;;29.60;68.80;;;;;;6278839;22;20146;-85
2022/05/27 12:48:31;;;;;;;7.83;2.10;;;30.10;67.70;;;;;;6279321;22;20164;-85
2022/05/27 12:51:06;;;;;;;7.20;2.30;;;30.20;67.40;;;;;;6278442;22;20157;-86
2022/05/27 12:53:44;;;;;;;5.63;2.20;;;29.50;65.60;;;;;;6307064;22;20157;-84
2022/05/27 17:30:39;;;;;;;4.10;1.07;;;27.30;51.00;;;;;;6328873;22;20228;-96
2022/05/27 17:33:07;;;;;;;5.30;1.10;;;27.70;51.10;;;;;;6312161;22;20631;-94
2022/05/27 17:35:34;;;;;;;7.27;1.73;;;27.50;50.70;;;;;;6312076;22;20188;-95
2022/05/27 17:37:59;;;;;;;6.40;1.50;;;27.60;51.10;;;;;;6311936;22;20195;-91
2022/05/27 17:40:27;;;;;;;6.47;1.90;;;27.50;51.70;;;;;;6312530;22;20164;-94
2022/05/27 17:42:55;;;;;;;5.17;1.67;;;27.30;52.30;;;;;;6315053;22;20161;-96
2022/05/27 17:45:21;;;;;;;5.33;1.57;;;27.40;52.10;;;;;;6312329;22;20179;-95
2022/05/27 17:53:16;;;;;;;7.37;1.80;;;26.70;53.30;;;;;;6339790;22;20727;-95
2022/05/27 17:55:43;;;;;;;4.57;1.87;;;26.70;53.80;;;;;;6313160;22;20171;-95
2022/05/27 17:58:08;;;;;;;7.53;1.50;;;26.70;53.60;;;;;;6313384;22;20187;-96
2022/05/27 18:00:35;;;;;;;8.30;1.97;;;26.60;53.40;;;;;;6313810;22;20170;-96
2022/05/27 18:03:01;;;;;;;5.77;1.77;;;26.40;53.60;;;;;;6312699;22;20564;-96
2022/05/27 18:05:27;;;;;;;9.30;1.93;;;26.30;54.20;;;;;;6312442;22;20145;-96
2022/05/27 18:07:53;;;;;;;5.10;1.37;;;26.10;54.60;;;;;;6283663;22;20183;-96
2022/05/27 18:10:18;;;;;;;6.27;1.60;;;26.10;55.00;;;;;;6283293;22;20158;-94
2022/05/27 18:12:44;;;;;;;5.63;1.67;;;25.90;55.10;;;;;;6282154;22;20176;-92
2022/05/27 18:15:11;;;;;;;8.57;2.03;;;25.90;55.70;;;;;;6283339;22;20192;-95
2022/05/27 18:17:37;;;;;;;6.43;1.70;;;25.70;55.90;;;;;;6283687;22;20193;-96
2022/05/27 18:20:04;;;;;;;8.37;2.20;;;25.60;55.70;;;;;;6308384;22;20502;-90
2022/05/27 18:22:29;;;;;;;7.17;2.00;;;25.30;56.60;;;;;;6282623;22;20169;-96
2022/05/27 18:24:55;;;;;;;7.47;1.93;;;25.30;56.30;;;;;;6281813;22;20181;-96
2022/05/27 18:27:21;;;;;;;7.10;1.70;;;25.30;56.00;;;;;;6281206;22;20165;-96
2022/05/27 18:29:47;;;;;;;6.00;1.87;;;25.10;56.40;;;;;;6282638;22;20162;-96
2022/05/27 18:32:13;;;;;;;8.00;1.67;;;25.00;56.10;;;;;;6281267;22;20173;-96
2022/05/27 18:34:38;;;;;;;8.33;1.87;;;24.80;56.20;;;;;;6281178;22;20162;-96
2022/05/27 18:37:04;;;;;;;7.27;1.67;;;24.70;56.40;;;;;;6282457;22;20200;-94
2022/05/27 18:39:30;;;;;;;7.60;2.20;;;24.40;56.60;;;;;;6281054;22;20173;-96
2022/05/27 18:41:56;;;;;;;9.23;1.93;;;24.10;57.30;;;;;;6283210;22;20621;-95
2022/05/27 18:44:21;;;;;;;7.50;1.73;;;23.90;57.60;;;;;;6283949;22;20166;-95
2022/05/27 18:46:47;;;;;;;5.60;1.63;;;23.80;58.00;;;;;;6283250;22;20499;-94
2022/05/27 18:49:13;;;;;;;7.63;1.90;;;23.30;58.50;;;;;;6284066;22;20169;-96
2022/05/27 18:51:39;;;;;;;8.60;1.70;;;23.10;59.30;;;;;;6283603;22;20158;-95
2022/05/27 18:54:05;;;;;;;6.33;1.80;;;23.10;59.60;;;;;;6283596;22;20161;-96
2022/05/27 18:56:31;;;;;;;9.40;2.00;;;23.10;59.20;;;;;;6282650;22;20238;-96
2022/05/27 18:58:56;;;;;;;8.07;1.57;;;23.20;59.50;;;;;;6282858;22;20617;-95
2022/05/27 19:01:22;;;;;;;7.73;1.87;;;23.20;59.60;;;;;;6283308;22;20181;-96
2022/05/27 19:03:47;;;;;;;8.27;1.83;;;23.10;59.70;;;;;;6282823;22;20172;-96
2022/05/27 19:06:13;;;;;;;8.20;2.00;;;23.10;59.80;;;;;;6284028;22;20181;-95
2022/05/27 19:08:38;;;;;;;7.37;1.63;;;23.10;60.30;;;;;;6284311;22;20629;-96
2022/05/27 19:11:08;;;;;;;9.13;2.10;;;23.10;60.90;;;;;;6284260;22;20237;-96
2022/05/27 19:13:33;;;;;;;8.80;2.03;;;23.10;60.20;;;;;;6283314;22;20255;-96
2022/05/27 19:16:00;;;;;;;8.60;1.80;;;23.10;60.40;;;;;;6285531;22;20157;-95
2022/05/27 19:21:16;;;;;;;7.03;1.70;;;23.00;60.40;;;;;;6287133;22;20192;-95
2022/05/27 19:21:17;;;;;;;9.70;2.03;;;22.80;61.10;;;;;;6312192;22;20266;-95
2022/05/27 19:23:47;;;;;;;12.07;2.27;;;22.80;61.20;;;;;;6285209;22;20161;-96
2022/05/27 19:26:23;;;;;;;7.03;2.13;;;22.80;60.90;;;;;;6284696;22;20582;-95
2022/05/27 19:28:49;;;;;;;8.40;2.30;;;22.70;61.10;;;;;;6285997;22;20149;-95
2022/05/27 19:31:16;;;;;;;7.77;2.03;;;22.60;61.30;;;;;;6283711;22;20212;-89
2022/05/27 19:33:42;;;;;;;6.80;1.73;;;22.40;61.80;;;;;;6284259;22;20669;-95
2022/05/27 19:36:09;;;;;;;9.37;2.10;;;22.20;62.40;;;;;;6282468;22;20239;-96
2022/05/27 19:38:37;;;;;;;13.43;2.70;;;22.20;62.60;;;;;;6284010;22;20213;-96
2022/05/27 19:41:10;;;;;;;6.93;1.60;;;22.20;62.40;;;;;;6283591;22;20173;-94
2022/05/27 19:43:41;;;;;;;8.43;1.67;;;22.10;62.80;;;;;;6283944;22;20184;-95
2022/05/27 19:46:09;;;;;;;11.23;2.40;;;22.20;62.70;;;;;;6283792;22;20170;-93
2022/05/27 19:48:38;;;;;;;6.43;1.80;;;21.90;63.70;;;;;;6283073;22;20180;-96
2022/05/27 19:51:21;;;;;;;12.63;3.67;;;21.70;64.30;;;;;;6281848;22;20491;-96
2022/05/27 19:53:48;;;;;;;6.30;2.13;;;21.70;64.10;;;;;;6283850;22;20181;-93
2022/05/27 19:56:15;;;;;;;8.60;2.50;;;21.30;66.20;;;;;;6288288;22;20172;-95
2022/05/27 20:01:25;;;;;;;7.10;1.87;;;21.20;66.60;;;;;;6308772;22;20506;-96
2022/05/27 20:06:35;;;;;;;9.63;1.73;;;20.60;69.10;;;;;;6310267;22;20196;-89
2022/05/27 20:09:04;;;;;;;12.00;2.23;;;20.50;69.10;;;;;;6283416;22;20165;-96
2022/05/27 20:11:34;;;;;;;10.27;2.30;;;20.50;68.20;;;;;;6283202;22;20150;-95
2022/05/27 20:14:10;;;;;;;7.90;2.23;;;20.70;68.60;;;;;;6282753;22;20169;-96
2022/05/27 20:16:38;;;;;;;8.67;2.10;;;20.60;69.10;;;;;;6283700;22;20169;-93
2022/05/27 20:19:04;;;;;;;5.63;1.73;;;20.60;69.00;;;;;;6282635;22;20169;-96
2022/05/27 20:21:31;;;;;;;10.43;1.97;;;20.50;70.30;;;;;;6282303;22;20170;-96
2022/05/27 20:23:57;;;;;;;7.07;2.20;;;20.40;69.60;;;;;;6283216;22;20189;-94
2022/05/27 20:26:22;;;;;;;8.63;2.40;;;20.30;70.60;;;;;;6284344;22;20184;-95
2022/05/27 20:28:49;;;;;;;7.67;2.00;;;20.20;71.00;;;;;;6284248;22;20189;-96
2022/05/27 20:31:15;;;;;;;6.83;2.23;;;20.20;70.80;;;;;;6282074;22;20172;-96
2022/05/27 20:33:40;;;;;;;7.67;2.03;;;20.10;71.20;;;;;;6284561;22;20165;-96
2022/05/27 20:38:51;;;;;;;4.73;1.50;;;20.00;71.30;;;;;;6312977;22;20199;-96
2022/05/27 20:41:17;;;;;;;9.00;1.80;;;20.20;71.20;;;;;;6284421;22;20172;-94
2022/05/27 20:43:42;;;;;;;11.00;2.73;;;20.30;70.70;;;;;;6290046;22;20156;-95
2022/05/27 20:46:08;;;;;;;7.57;2.30;;;20.20;70.70;;;;;;6300970;22;20161;-90
2022/05/27 20:48:36;;;;;;;9.27;2.07;;;20.20;70.70;;;;;;6305783;22;20172;-91
2022/05/27 20:51:01;;;;;;;7.00;1.77;;;20.00;71.00;;;;;;6305728;22;20169;-96
2022/05/27 20:53:27;;;;;;;12.50;2.17;;;20.00;72.20;;;;;;6295587;22;20169;-95
2022/05/27 20:55:53;;;;;;;7.13;2.00;;;19.90;72.40;;;;;;6292184;22;20175;-96
2022/05/27 20:58:18;;;;;;;8.07;2.10;;;19.70;73.00;;;;;;6286498;22;20216;-94
